Smock, Pennsylvania
Current Conditions -  °F | °C
As of 3:53 PM on Monday 22 Dec 2014 (Local Time) from KMGW Reporting Station
Light Rain Light Rain  
Wind Chill: 38°   Ceiling: 4500
Heat Index: 43°   Visibility: 10mi
Dew Point: 30°   Wind: 9mph
Humidity: 60%   Direction: 100°E
Pressure: 29.98"   Gusts: NA
Location:  40°N, 79.78°W
Report Text: KMGW 222053Z 10008KT 060V140 10SM -RA OVC045 06/M01 A2998 RMK AO2 RAB43 SLP159 P0000 60000 T00611011 56020
Loading
Personal Weather Stations






























Interactive Weather Map New forecast layout! Learn more

10-Day Weather Forecast

Advertisements
Track Severe Weather on mobile